Kalama, WA

7:55 AM PDT on July 30, 2016 (GMT -0700)
China Garden Weather | | Change Station

Elev 886 ft 46.00 °N, 122.80 °W | Updated 2 seconds ago

Overcast
Overcast
56.8 °F
Feels Like 56.8 °F
N
1.0
Wind Variable Wind from West
Gusts 1.0 mph

Today
High -- | Low -- °F
--% Chance of Precip.
Yesterday
High -- | Low -- °F
Precip. -- in
Pressure 30.02 in
Visibility 10.0 miles
Clouds Overcast 2100 ft
Dew Point 53 °F
Humidity 87%
Rainfall 0.00 in
Snow Depth Not available.
5:52 AM 8:42 PM
Waning Crescent, 13% visible
METAR KKLS 301356Z AUTO VRB06KT 10SM OVC021 16/11 A3000 RMK AO2 SLP164 T01560111
Pressure 30.02 in
Visibility 10.0 miles
Clouds Overcast 2100 ft
Dew Point 53 °F
Humidity 87%
Rainfall 0.00 in
Snow Depth Not available.
5:52 AM 8:42 PM
Waning Crescent, 13% visible
METAR KKLS 301356Z AUTO VRB06KT 10SM OVC021 16/11 A3000 RMK AO2 SLP164 T01560111

10-Day Weather Forecast

Almanac

Astronomy

Jul. 30, 2016 Rise Set
Actual Time
Civil Twilight
Nautical Twilight
Astronomical Twilight
Moon
Length of Visible Light
Length of Day
Tomorrow will be .
, % of the Moon is Illuminated

Today's Extremes

State Highs State Lows

Community

WunderPhotos

Upload Photos

1,928,565 photos uploaded!

WunderBlog® & News

Nearby

Air Quality

  Air Quality AQ Index Pollutant
Not available.

Snow Depth

Station Depth Elevation

Earthquake Activity

City Distance Mag. Time & Date
Minimum magnitude displayed is 2.5.

Coastal Water Temperatures

Place Temperature

Stations

Nearby Weather Stations

Station Location Temp. Windchill Dew Point Humidity Wind Precip. Elev Updated Type
                   

Watches & Warnings

There are currently no watches in effect.